Time,TemperatureF,DewpointF,PressureIn,WindDirection,WindDirectionDegrees,WindSpeedMPH,WindSpeedGustMPH,Humidity,HourlyPrecipIn,Conditions,Clouds,dailyrainin,SoftwareType,DateUTC
2013-03-13 00:30:00,44.0,37.0,29.81,ESE,112,5.0,8.0,76,0.00,,,1.67,TxWx,2013-03-13 04:30:00,
2013-03-13 00:37:00,44.0,37.0,29.81,SSE,157,5.0,6.0,76,0.00,,,1.67,TxWx,2013-03-13 04:37:00,
2013-03-13 00:47:00,44.0,37.0,29.81,ESE,112,5.0,5.0,76,0.00,,,1.67,TxWx,2013-03-13 04:47:00,
2013-03-13 00:52:00,43.0,36.0,29.81,SE,135,8.0,8.0,76,0.00,,,1.67,TxWx,2013-03-13 04:52:00,
2013-03-13 00:57:00,43.0,36.0,29.81,ESE,112,5.0,7.0,75,0.00,,,1.67,TxWx,2013-03-13 04:57:00,
2013-03-13 01:02:00,43.0,36.0,29.81,ESE,112,5.0,5.0,75,0.00,,,0.00,TxWx,2013-03-13 05:02:00,
2013-03-13 01:07:00,43.0,36.0,29.81,SE,135,8.0,9.0,75,0.00,,,0.00,TxWx,2013-03-13 05:07:00,
2013-03-13 01:12:00,43.0,35.0,29.81,ESE,112,8.0,10.0,75,0.00,,,0.00,TxWx,2013-03-13 05:12:00,
2013-03-13 01:18:00,43.0,35.0,29.81,SE,135,6.0,8.0,75,0.00,,,0.00,TxWx,2013-03-13 05:18:00,
2013-03-13 01:23:00,43.0,35.0,29.81,ESE,112,6.0,8.0,75,0.00,,,0.00,TxWx,2013-03-13 05:23:00,
2013-03-13 01:28:00,42.0,34.0,29.81,SE,135,6.0,8.0,75,0.00,,,0.00,TxWx,2013-03-13 05:28:00,
2013-03-13 01:33:00,42.0,34.0,29.81,SE,135,8.0,8.0,75,0.00,,,0.00,TxWx,2013-03-13 05:33:00,
2013-03-13 01:38:00,42.0,35.0,29.81,SE,135,6.0,9.0,75,0.00,,,0.00,TxWx,2013-03-13 05:38:00,
2013-03-13 01:44:00,42.0,34.0,29.81,ESE,112,10.0,11.0,75,0.00,,,0.00,TxWx,2013-03-13 05:44:00,
2013-03-13 01:49:00,43.0,35.0,29.82,SE,135,10.0,10.0,74,0.00,,,0.00,TxWx,2013-03-13 05:49:00,
2013-03-13 01:54:00,42.0,34.0,29.82,South,180,8.0,8.0,74,0.00,,,0.00,TxWx,2013-03-13 05:54:00,
2013-03-13 01:59:00,42.0,34.0,29.82,SSE,157,5.0,7.0,74,0.00,,,0.00,TxWx,2013-03-13 05:59:00,
2013-03-13 02:04:00,42.0,34.0,29.82,ESE,112,8.0,9.0,74,0.00,,,0.00,TxWx,2013-03-13 06:04:00,
2013-03-13 02:10:00,42.0,34.0,29.82,SE,135,6.0,6.0,75,0.00,,,0.00,TxWx,2013-03-13 06:10:00,
2013-03-13 02:15:00,42.0,34.0,29.82,SSE,157,5.0,8.0,75,0.00,,,0.00,TxWx,2013-03-13 06:15:00,
2013-03-13 02:20:00,42.0,34.0,29.82,ESE,112,6.0,8.0,75,0.00,,,0.00,TxWx,2013-03-13 06:20:00,
2013-03-13 02:25:00,42.0,34.0,29.82,SSE,157,6.0,6.0,74,0.00,,,0.00,TxWx,2013-03-13 06:25:00,
2013-03-13 02:31:00,42.0,34.0,29.82,ESE,112,6.0,6.0,74,0.00,,,0.00,TxWx,2013-03-13 06:31:00,
2013-03-13 02:36:00,42.0,34.0,29.81,SE,135,6.0,6.0,75,0.00,,,0.00,TxWx,2013-03-13 06:36:00,
2013-03-13 02:41:00,42.0,35.0,29.81,SE,135,5.0,5.0,75,0.00,,,0.00,TxWx,2013-03-13 06:41:00,
2013-03-13 02:46:00,41.0,34.0,29.81,ESE,112,3.0,5.0,76,0.00,,,0.00,TxWx,2013-03-13 06:46:00,
2013-03-13 02:52:00,41.0,34.0,29.81,South,180,3.0,3.0,76,0.00,,,0.00,TxWx,2013-03-13 06:52:00,
2013-03-13 02:57:00,41.0,34.0,29.81,SE,135,5.0,6.0,76,0.00,,,0.00,TxWx,2013-03-13 06:57:00,
2013-03-13 03:02:00,41.0,34.0,29.81,ESE,112,5.0,5.0,77,0.00,,,0.00,TxWx,2013-03-13 07:02:00,
2013-03-13 03:08:00,41.0,34.0,29.81,SE,135,6.0,7.0,77,0.00,,,0.00,TxWx,2013-03-13 07:08:00,
2013-03-13 03:13:00,40.0,34.0,29.81,ESE,112,6.0,6.0,78,0.00,,,0.00,TxWx,2013-03-13 07:13:00,
2013-03-13 03:18:00,40.0,34.0,29.81,East,90,4.0,5.0,78,0.00,,,0.00,TxWx,2013-03-13 07:18:00,
2013-03-13 03:23:00,40.0,34.0,29.81,ESE,112,5.0,7.0,78,0.00,,,0.00,TxWx,2013-03-13 07:23:00,
2013-03-13 03:28:00,40.0,34.0,29.81,ESE,112,5.0,6.0,78,0.00,,,0.00,TxWx,2013-03-13 07:28:00,
2013-03-13 03:33:00,40.0,34.0,29.81,ESE,112,6.0,6.0,78,0.00,,,0.00,TxWx,2013-03-13 07:33:00,
2013-03-13 03:38:00,40.0,34.0,29.81,SE,135,6.0,6.0,78,0.00,,,0.00,TxWx,2013-03-13 07:38:00,
2013-03-13 03:43:00,40.0,34.0,29.81,ESE,112,6.0,6.0,78,0.00,,,0.00,TxWx,2013-03-13 07:43:00,
2013-03-13 03:49:00,40.0,34.0,29.81,ESE,112,8.0,9.0,79,0.00,,,0.00,TxWx,2013-03-13 07:49:00,
2013-03-13 03:54:00,40.0,34.0,29.81,SE,135,8.0,8.0,79,0.00,,,0.00,TxWx,2013-03-13 07:54:00,
2013-03-13 03:59:00,40.0,34.0,29.81,ESE,112,10.0,11.0,78,0.00,,,0.00,TxWx,2013-03-13 07:59:00,
2013-03-13 04:05:00,40.0,33.0,29.81,SE,135,7.0,8.0,77,0.00,,,0.00,TxWx,2013-03-13 08:05:00,
2013-03-13 04:10:00,40.0,33.0,29.81,SE,135,5.0,5.0,76,0.00,,,0.00,TxWx,2013-03-13 08:10:00,
2013-03-13 04:15:00,40.0,33.0,29.81,SE,135,3.0,6.0,76,0.00,,,0.00,TxWx,2013-03-13 08:15:00,
2013-03-13 04:20:00,40.0,33.0,29.81,ESE,112,5.0,5.0,75,0.00,,,0.00,TxWx,2013-03-13 08:20:00,
2013-03-13 04:25:00,40.0,33.0,29.81,SE,135,6.0,10.0,75,0.00,,,0.00,TxWx,2013-03-13 08:25:00,
2013-03-13 04:31:00,40.0,32.0,29.81,SE,135,8.0,9.0,74,0.00,,,0.00,TxWx,2013-03-13 08:31:00,
2013-03-13 04:36:00,40.0,32.0,29.81,SE,135,5.0,6.0,74,0.00,,,0.00,TxWx,2013-03-13 08:36:00,
2013-03-13 04:42:00,40.0,33.0,29.81,SE,135,6.0,7.0,75,0.00,,,0.00,TxWx,2013-03-13 08:42:00,
2013-03-13 04:47:00,39.0,31.0,29.81,SE,135,5.0,5.0,75,0.00,,,0.00,TxWx,2013-03-13 08:47:00,
2013-03-13 04:52:00,39.0,31.0,29.81,SSE,157,4.0,5.0,76,0.00,,,0.00,TxWx,2013-03-13 08:52:00,
2013-03-13 04:57:00,39.0,32.0,29.81,SE,135,5.0,6.0,76,0.00,,,0.00,TxWx,2013-03-13 08:57:00,
2013-03-13 05:02:00,39.0,32.0,29.81,SE,135,4.0,6.0,77,0.00,,,0.00,TxWx,2013-03-13 09:02:00,
2013-03-13 05:08:00,39.0,33.0,29.81,SSE,157,4.0,5.0,78,0.00,,,0.00,TxWx,2013-03-13 09:08:00,
2013-03-13 05:13:00,39.0,33.0,29.81,ESE,112,3.0,5.0,78,0.00,,,0.00,TxWx,2013-03-13 09:13:00,
2013-03-13 05:18:00,39.0,33.0,29.82,SE,135,3.0,5.0,78,0.00,,,0.00,TxWx,2013-03-13 09:18:00,
2013-03-13 05:24:00,39.0,33.0,29.81,SSE,157,8.0,8.0,79,0.00,,,0.00,TxWx,2013-03-13 09:24:00,
2013-03-13 05:29:00,39.0,33.0,29.82,SSE,157,6.0,8.0,78,0.00,,,0.00,TxWx,2013-03-13 09:29:00,
2013-03-13 05:34:00,39.0,32.0,29.81,ESE,112,11.0,11.0,77,0.00,,,0.00,TxWx,2013-03-13 09:34:00,
2013-03-13 05:40:00,40.0,33.0,29.81,ESE,112,8.0,8.0,75,0.00,,,0.00,TxWx,2013-03-13 09:40:00,
2013-03-13 05:45:00,40.0,32.0,29.81,East,90,5.0,6.0,74,0.00,,,0.00,TxWx,2013-03-13 09:45:00,
2013-03-13 05:50:00,40.0,32.0,29.81,ESE,112,6.0,8.0,73,0.00,,,0.00,TxWx,2013-03-13 09:50:00,
2013-03-13 05:55:00,40.0,32.0,29.81,ESE,112,8.0,10.0,73,0.00,,,0.00,TxWx,2013-03-13 09:55:00,
2013-03-13 06:00:00,40.0,31.0,29.81,SE,135,5.0,6.0,73,0.00,,,0.00,TxWx,2013-03-13 10:00:00,
2013-03-13 06:05:00,40.0,31.0,29.81,ESE,112,5.0,6.0,73,0.00,,,0.00,TxWx,2013-03-13 10:05:00,
2013-03-13 06:10:00,40.0,31.0,29.81,ESE,112,6.0,6.0,72,0.00,,,0.00,TxWx,2013-03-13 10:10:00,
2013-03-13 06:16:00,40.0,31.0,29.82,East,90,7.0,8.0,72,0.00,,,0.00,TxWx,2013-03-13 10:16:00,
2013-03-13 06:21:00,40.0,31.0,29.82,ESE,112,4.0,5.0,72,0.00,,,0.00,TxWx,2013-03-13 10:21:00,
2013-03-13 06:26:00,39.0,30.0,29.82,ESE,112,6.0,7.0,72,0.00,,,0.00,TxWx,2013-03-13 10:26:00,
2013-03-13 06:31:00,39.0,30.0,29.82,SE,135,5.0,5.0,72,0.00,,,0.00,TxWx,2013-03-13 10:31:00,
2013-03-13 06:37:00,39.0,30.0,29.82,ESE,112,4.0,4.0,72,0.00,,,0.00,TxWx,2013-03-13 10:37:00,
2013-03-13 06:42:00,39.0,30.0,29.82,SE,135,3.0,3.0,72,0.00,,,0.00,TxWx,2013-03-13 10:42:00,
2013-03-13 06:47:00,39.0,30.0,29.82,ESE,112,3.0,4.0,72,0.00,,,0.00,TxWx,2013-03-13 10:47:00,
2013-03-13 06:53:00,39.0,30.0,29.82,SE,135,2.0,3.0,72,0.00,,,0.00,TxWx,2013-03-13 10:53:00,
2013-03-13 06:58:00,39.0,30.0,29.82,SSW,202,3.0,3.0,72,0.00,,,0.00,TxWx,2013-03-13 10:58:00,
2013-03-13 07:03:00,39.0,30.0,29.81,East,90,5.0,5.0,72,0.00,,,0.00,TxWx,2013-03-13 11:03:00,
2013-03-13 07:08:00,39.0,30.0,29.81,ESE,112,3.0,4.0,72,0.00,,,0.00,TxWx,2013-03-13 11:08:00,
2013-03-13 07:13:00,39.0,30.0,29.81,SSE,157,5.0,6.0,72,0.00,,,0.00,TxWx,2013-03-13 11:13:00,
2013-03-13 07:18:00,39.0,30.0,29.81,SSE,157,2.0,3.0,72,0.00,,,0.00,TxWx,2013-03-13 11:18:00,
2013-03-13 07:24:00,39.0,30.0,29.81,ESE,112,3.0,3.0,72,0.00,,,0.00,TxWx,2013-03-13 11:24:00,
2013-03-13 07:29:00,38.0,29.0,29.81,SSE,157,2.0,3.0,73,0.00,,,0.00,TxWx,2013-03-13 11:29:00,
2013-03-13 07:34:00,38.0,29.0,29.81,ESE,112,5.0,5.0,73,0.00,,,0.00,TxWx,2013-03-13 11:34:00,
2013-03-13 07:40:00,38.0,29.0,29.81,SE,135,4.0,5.0,73,0.00,,,0.00,TxWx,2013-03-13 11:40:00,
2013-03-13 07:45:00,38.0,29.0,29.81,SE,135,3.0,3.0,74,0.00,,,0.00,TxWx,2013-03-13 11:45:00,
2013-03-13 07:50:00,38.0,29.0,29.81,SSE,157,2.0,3.0,74,0.00,,,0.00,TxWx,2013-03-13 11:50:00,
2013-03-13 07:56:00,39.0,30.0,29.81,SSE,157,3.0,5.0,73,0.00,,,0.00,TxWx,2013-03-13 11:56:00,
2013-03-13 08:02:00,39.0,30.0,29.81,SE,135,1.0,1.0,73,0.00,,,0.00,TxWx,2013-03-13 12:02:00,
2013-03-13 08:07:00,39.0,30.0,29.81,SE,135,1.0,1.0,73,0.00,,,0.00,TxWx,2013-03-13 12:07:00,
2013-03-13 08:12:00,40.0,31.0,29.81,ESE,112,3.0,3.0,72,0.00,,,0.00,TxWx,2013-03-13 12:12:00,
2013-03-13 08:17:00,40.0,31.0,29.81,ESE,112,3.0,3.0,72,0.00,,,0.00,TxWx,2013-03-13 12:17:00,
2013-03-13 08:22:00,40.0,30.0,29.81,East,90,5.0,5.0,71,0.00,,,0.00,TxWx,2013-03-13 12:22:00,
2013-03-13 08:27:00,40.0,30.0,29.81,ESE,112,5.0,5.0,70,0.00,,,0.00,TxWx,2013-03-13 12:27:00,
2013-03-13 08:33:00,40.0,30.0,29.81,East,90,5.0,6.0,70,0.00,,,0.00,TxWx,2013-03-13 12:33:00,
2013-03-13 08:38:00,41.0,30.0,29.81,ESE,112,4.0,4.0,69,0.00,,,0.00,TxWx,2013-03-13 12:38:00,
2013-03-13 08:43:00,41.0,30.0,29.81,ENE,67,3.0,4.0,68,0.00,,,0.00,TxWx,2013-03-13 12:43:00,
2013-03-13 08:48:00,41.0,30.0,29.81,East,90,2.0,3.0,67,0.00,,,0.00,TxWx,2013-03-13 12:48:00,
2013-03-13 08:53:00,42.0,31.0,29.81,North,0,6.0,8.0,67,0.00,,,0.00,TxWx,2013-03-13 12:53:00,
2013-03-13 08:59:00,42.0,30.0,29.81,NNE,22,3.0,4.0,66,0.00,,,0.00,TxWx,2013-03-13 12:59:00,
2013-03-13 09:04:00,42.0,30.0,29.81,NNE,22,3.0,5.0,64,0.00,,,0.00,TxWx,2013-03-13 13:04:00,
2013-03-13 09:10:00,42.0,30.0,29.81,East,90,7.0,10.0,64,0.00,,,0.00,TxWx,2013-03-13 13:10:00,
2013-03-13 09:15:00,42.0,29.0,29.82,NNE,22,5.0,5.0,64,0.00,,,0.00,TxWx,2013-03-13 13:15:00,
2013-03-13 09:20:00,42.0,29.0,29.82,ENE,67,7.0,7.0,63,0.00,,,0.00,TxWx,2013-03-13 13:20:00,
2013-03-13 09:26:00,42.0,29.0,29.82,SE,135,3.0,3.0,64,0.00,,,0.00,TxWx,2013-03-13 13:26:00,
2013-03-13 09:31:00,42.0,29.0,29.82,ENE,67,9.0,10.0,63,0.00,,,0.00,TxWx,2013-03-13 13:31:00,
2013-03-13 09:36:00,42.0,29.0,29.82,ENE,67,8.0,9.0,62,0.00,,,0.00,TxWx,2013-03-13 13:36:00,
2013-03-13 09:41:00,42.0,29.0,29.82,East,90,6.0,7.0,62,0.00,,,0.00,TxWx,2013-03-13 13:41:00,
2013-03-13 09:46:00,42.0,29.0,29.82,ENE,67,8.0,9.0,62,0.00,,,0.00,TxWx,2013-03-13 13:46:00,
2013-03-13 09:52:00,42.0,29.0,29.82,East,90,8.0,8.0,61,0.00,,,0.00,TxWx,2013-03-13 13:52:00,
2013-03-13 09:57:00,42.0,29.0,29.82,East,90,8.0,10.0,62,0.00,,,0.00,TxWx,2013-03-13 13:57:00,
2013-03-13 10:02:00,42.0,29.0,29.82,ESE,112,9.0,11.0,61,0.00,,,0.00,TxWx,2013-03-13 14:02:00,
2013-03-13 10:08:00,43.0,30.0,29.82,NE,45,5.0,5.0,62,0.00,,,0.00,TxWx,2013-03-13 14:08:00,
2013-03-13 10:13:00,43.0,30.0,29.81,East,90,5.0,6.0,62,0.00,,,0.00,TxWx,2013-03-13 14:13:00,
2013-03-13 10:18:00,43.0,29.0,29.81,ENE,67,4.0,5.0,61,0.00,,,0.00,TxWx,2013-03-13 14:18:00,
2013-03-13 10:23:00,43.0,29.0,29.81,East,90,3.0,4.0,61,0.00,,,0.00,TxWx,2013-03-13 14:23:00,
2013-03-13 10:28:00,43.0,29.0,29.81,ESE,112,4.0,5.0,61,0.00,,,0.00,TxWx,2013-03-13 14:28:00,
2013-03-13 10:33:00,43.0,29.0,29.81,East,90,7.0,7.0,61,0.00,,,0.00,TxWx,2013-03-13 14:33:00,
2013-03-13 10:39:00,43.0,29.0,29.81,East,90,5.0,5.0,61,0.00,,,0.00,TxWx,2013-03-13 14:39:00,
2013-03-13 10:44:00,43.0,29.0,29.81,NE,45,2.0,5.0,60,0.00,,,0.00,TxWx,2013-03-13 14:44:00,
2013-03-13 10:49:00,43.0,29.0,29.81,East,90,5.0,6.0,61,0.00,,,0.00,TxWx,2013-03-13 14:49:00,
2013-03-13 10:55:00,43.0,29.0,29.81,East,90,7.0,7.0,61,0.00,,,0.00,TxWx,2013-03-13 14:55:00,
2013-03-13 11:00:00,43.0,29.0,29.81,East,90,4.0,5.0,61,0.00,,,0.00,TxWx,2013-03-13 15:00:00,
2013-03-13 11:05:00,44.0,30.0,29.81,ESE,112,3.0,5.0,61,0.00,,,0.00,TxWx,2013-03-13 15:05:00,
2013-03-13 11:10:00,44.0,30.0,29.81,NE,45,5.0,6.0,60,0.00,,,0.00,TxWx,2013-03-13 15:10:00,
2013-03-13 11:15:00,44.0,30.0,29.80,ENE,67,4.0,4.0,60,0.00,,,0.00,TxWx,2013-03-13 15:15:00,
2013-03-13 11:21:00,45.0,30.0,29.80,East,90,4.0,4.0,59,0.00,,,0.00,TxWx,2013-03-13 15:21:00,
2013-03-13 11:26:00,45.0,30.0,29.80,SSE,157,3.0,3.0,58,0.00,,,0.00,TxWx,2013-03-13 15:26:00,
2013-03-13 11:31:00,45.0,30.0,29.80,East,90,5.0,6.0,58,0.00,,,0.00,TxWx,2013-03-13 15:31:00,
2013-03-13 11:37:00,45.0,30.0,29.80,East,90,5.0,5.0,58,0.00,,,0.00,TxWx,2013-03-13 15:37:00,
2013-03-13 11:42:00,45.0,30.0,29.79,SW,225,1.0,1.0,58,0.00,,,0.00,TxWx,2013-03-13 15:42:00,
2013-03-13 11:47:00,46.0,32.0,29.79,North,0,3.0,5.0,58,0.00,,,0.00,TxWx,2013-03-13 15:47:00,
2013-03-13 11:52:00,46.0,30.0,29.79,South,180,4.0,4.0,57,0.00,,,0.00,TxWx,2013-03-13 15:52:00,
2013-03-13 11:57:00,47.0,32.0,29.79,East,90,2.0,3.0,56,0.00,,,0.00,TxWx,2013-03-13 15:57:00,
2013-03-13 12:02:00,47.0,31.0,29.79,East,90,3.0,3.0,55,0.00,,,0.00,TxWx,2013-03-13 16:02:00,
2013-03-13 12:08:00,47.0,31.0,29.78,SE,135,1.0,1.0,56,0.00,,,0.00,TxWx,2013-03-13 16:08:00,
2013-03-13 12:13:00,47.0,31.0,29.78,ESE,112,6.0,6.0,55,0.00,,,0.00,TxWx,2013-03-13 16:13:00,
2013-03-13 12:18:00,47.0,30.0,29.78,SE,135,3.0,3.0,54,0.00,,,0.00,TxWx,2013-03-13 16:18:00,
2013-03-13 12:23:00,47.0,29.0,29.78,East,90,6.0,8.0,53,0.00,,,0.00,TxWx,2013-03-13 16:23:00,
2013-03-13 12:29:00,47.0,29.0,29.78,East,90,3.0,5.0,52,0.00,,,0.00,TxWx,2013-03-13 16:29:00,
2013-03-13 12:34:00,47.0,29.0,29.78,NW,315,3.0,3.0,52,0.00,,,0.00,TxWx,2013-03-13 16:34:00,
2013-03-13 12:39:00,47.0,29.0,29.78,NNW,337,3.0,4.0,51,0.00,,,0.00,TxWx,2013-03-13 16:39:00,
2013-03-13 12:44:00,47.0,29.0,29.78,NE,45,2.0,2.0,51,0.00,,,0.00,TxWx,2013-03-13 16:44:00,
2013-03-13 12:49:00,48.0,30.0,29.78,SE,135,4.0,6.0,51,0.00,,,0.00,TxWx,2013-03-13 16:49:00,
2013-03-13 12:55:00,49.0,30.0,29.77,SE,135,5.0,5.0,49,0.00,,,0.00,TxWx,2013-03-13 16:55:00,
2013-03-13 13:00:00,48.0,28.0,29.77,SE,135,10.0,13.0,49,0.00,,,0.00,TxWx,2013-03-13 17:00:00,
2013-03-13 13:05:00,48.0,28.0,29.77,SE,135,7.0,8.0,49,0.00,,,0.00,TxWx,2013-03-13 17:05:00,
2013-03-13 13:11:00,47.0,27.0,29.77,SSW,202,5.0,5.0,48,0.00,,,0.00,TxWx,2013-03-13 17:11:00,
2013-03-13 13:16:00,47.0,27.0,29.77,SSW,202,3.0,5.0,48,0.00,,,0.00,TxWx,2013-03-13 17:16:00,
2013-03-13 13:21:00,48.0,28.0,29.76,SSE,157,3.0,3.0,48,0.00,,,0.00,TxWx,2013-03-13 17:21:00,
2013-03-13 13:27:00,48.0,28.0,29.76,ESE,112,3.0,3.0,48,0.00,,,0.00,TxWx,2013-03-13 17:27:00,
2013-03-13 13:32:00,49.0,29.0,29.76,South,180,2.0,2.0,48,0.00,,,0.00,TxWx,2013-03-13 17:32:00,
2013-03-13 13:37:00,49.0,28.0,29.76,ESE,112,3.0,3.0,46,0.00,,,0.00,TxWx,2013-03-13 17:37:00,
2013-03-13 13:42:00,49.0,28.0,29.76,SW,225,3.0,3.0,46,0.00,,,0.00,TxWx,2013-03-13 17:42:00,
2013-03-13 13:47:00,49.0,28.0,29.76,East,90,1.0,2.0,46,0.00,,,0.00,TxWx,2013-03-13 17:47:00,
2013-03-13 13:52:00,50.0,28.0,29.75,ENE,67,2.0,3.0,44,0.00,,,0.00,TxWx,2013-03-13 17:52:00,
2013-03-13 13:58:00,50.0,27.0,29.75,East,90,6.0,6.0,43,0.00,,,0.00,TxWx,2013-03-13 17:58:00,
2013-03-13 14:00:00,40.0,26.0,29.80,East,90,6.0,6.0,59,0.00,,,0.00,TxWx,2013-03-13 18:00:00,
2013-03-13 14:01:00,40.0,26.0,29.80,ENE,67,6.0,6.0,59,0.00,,,0.00,TxWx,2013-03-13 18:01:00,
2013-03-13 14:02:00,40.0,26.0,29.80,East,90,3.0,3.0,59,0.00,,,0.00,TxWx,2013-03-13 18:02:00,
2013-03-13 14:03:00,50.0,28.0,29.75,West,270,5.0,5.0,44,0.00,,,0.00,TxWx,2013-03-13 18:03:00,
2013-03-13 14:04:00,40.0,26.0,29.79,East,90,4.0,5.0,60,0.00,,,0.00,TxWx,2013-03-13 18:04:00,
2013-03-13 14:05:00,40.0,26.0,29.80,East,90,7.0,7.0,60,0.00,,,0.00,TxWx,2013-03-13 18:05:00,
2013-03-13 14:06:00,40.0,26.0,29.80,East,90,4.0,5.0,60,0.00,,,0.00,TxWx,2013-03-13 18:06:00,
2013-03-13 14:07:00,40.0,26.0,29.80,SE,135,4.0,5.0,60,0.00,,,0.00,TxWx,2013-03-13 18:07:00,
2013-03-13 14:08:00,50.0,27.0,29.75,ESE,112,6.0,8.0,43,0.00,,,0.00,TxWx,2013-03-13 18:08:00,
2013-03-13 14:09:00,40.0,26.0,29.80,East,90,8.0,8.0,60,0.00,,,0.00,TxWx,2013-03-13 18:09:00,
2013-03-13 14:10:00,40.0,26.0,29.79,ENE,67,4.0,4.0,60,0.00,,,0.00,TxWx,2013-03-13 18:10:00,
2013-03-13 14:11:00,40.0,26.0,29.79,ENE,67,5.0,6.0,60,0.00,,,0.00,TxWx,2013-03-13 18:11:00,
2013-03-13 14:12:00,40.0,26.0,29.79,East,90,5.0,5.0,60,0.00,,,0.00,TxWx,2013-03-13 18:12:00,
2013-03-13 14:13:00,40.0,26.0,29.79,East,90,5.0,5.0,60,0.00,,,0.00,TxWx,2013-03-13 18:13:00,
2013-03-13 14:14:00,49.0,26.0,29.74,NE,45,5.0,6.0,42,0.00,,,0.00,TxWx,2013-03-13 18:14:00,
2013-03-13 14:15:00,40.0,26.0,29.79,ENE,67,2.0,3.0,60,0.00,,,0.00,TxWx,2013-03-13 18:15:00,
2013-03-13 14:16:00,40.0,26.0,29.79,ESE,112,5.0,5.0,60,0.00,,,0.00,TxWx,2013-03-13 18:16:00,
2013-03-13 14:17:00,40.0,26.0,29.80,NE,45,3.0,5.0,60,0.00,,,0.00,TxWx,2013-03-13 18:17:00,
2013-03-13 14:18:00,40.0,26.0,29.79,East,90,7.0,8.0,60,0.00,,,0.00,TxWx,2013-03-13 18:18:00,
2013-03-13 14:19:00,49.0,26.0,29.74,NE,45,3.0,3.0,42,0.00,,,0.00,TxWx,2013-03-13 18:19:00,
2013-03-13 14:20:00,40.0,26.0,29.79,ENE,67,5.0,8.0,60,0.00,,,0.00,TxWx,2013-03-13 18:20:00,
2013-03-13 14:21:00,40.0,26.0,29.80,East,90,4.0,4.0,60,0.00,,,0.00,TxWx,2013-03-13 18:21:00,
2013-03-13 14:22:00,40.0,26.0,29.80,East,90,5.0,8.0,60,0.00,,,0.00,TxWx,2013-03-13 18:22:00,
2013-03-13 14:23:00,40.0,26.0,29.79,East,90,6.0,7.0,60,0.00,,,0.00,TxWx,2013-03-13 18:23:00,
2013-03-13 14:24:00,49.0,26.0,29.74,South,180,5.0,5.0,42,0.00,,,0.00,TxWx,2013-03-13 18:24:00,
2013-03-13 14:25:00,40.0,26.0,29.79,ENE,67,6.0,7.0,60,0.00,,,0.00,TxWx,2013-03-13 18:25:00,
2013-03-13 14:26:00,40.0,26.0,29.79,ESE,112,6.0,6.0,60,0.00,,,0.00,TxWx,2013-03-13 18:26:00,
2013-03-13 14:27:00,40.0,26.0,29.79,East,90,5.0,5.0,60,0.00,,,0.00,TxWx,2013-03-13 18:27:00,
2013-03-13 14:28:00,40.0,26.0,29.79,ESE,112,4.0,5.0,60,0.00,,,0.00,TxWx,2013-03-13 18:28:00,
2013-03-13 14:29:00,50.0,27.0,29.74,NNW,337,1.0,1.0,42,0.00,,,0.00,TxWx,2013-03-13 18:29:00,
2013-03-13 14:30:00,40.0,26.0,29.79,ENE,67,3.0,5.0,60,0.00,,,0.00,TxWx,2013-03-13 18:30:00,
2013-03-13 14:31:00,40.0,26.0,29.79,ENE,67,3.0,4.0,60,0.00,,,0.00,TxWx,2013-03-13 18:31:00,
2013-03-13 14:32:00,40.0,26.0,29.79,ENE,67,3.0,4.0,60,0.00,,,0.00,TxWx,2013-03-13 18:32:00,
2013-03-13 14:33:00,40.0,26.0,29.79,ENE,67,2.0,3.0,60,0.00,,,0.00,TxWx,2013-03-13 18:33:00,
2013-03-13 14:34:00,50.0,26.0,29.74,East,90,3.0,3.0,40,0.00,,,0.00,TxWx,2013-03-13 18:34:00,
2013-03-13 14:35:00,40.0,26.0,29.79,ESE,112,4.0,5.0,60,0.00,,,0.00,TxWx,2013-03-13 18:35:00,
2013-03-13 14:36:00,40.0,26.0,29.79,ENE,67,3.0,3.0,60,0.00,,,0.00,TxWx,2013-03-13 18:36:00,
2013-03-13 14:39:00,50.0,25.0,29.73,East,90,6.0,8.0,39,0.00,,,0.00,TxWx,2013-03-13 18:39:00,
2013-03-13 14:41:00,40.0,26.0,29.79,ESE,112,4.0,4.0,60,0.00,,,0.00,TxWx,2013-03-13 18:41:00,
2013-03-13 14:44:00,50.0,25.0,29.73,NNW,337,3.0,3.0,40,0.00,,,0.00,TxWx,2013-03-13 18:44:00,
2013-03-13 14:46:00,40.0,26.0,29.79,ESE,112,4.0,6.0,59,0.00,,,0.00,TxWx,2013-03-13 18:46:00,
2013-03-13 14:49:00,50.0,25.0,29.73,ESE,112,6.0,7.0,39,0.00,,,0.00,TxWx,2013-03-13 18:49:00,
2013-03-13 14:52:00,39.0,25.0,29.79,NNE,22,6.0,8.0,59,0.00,,,0.00,TxWx,2013-03-13 18:52:00,
2013-03-13 14:53:00,39.0,25.0,29.80,East,90,10.0,10.0,59,0.00,,,0.00,TxWx,2013-03-13 18:53:00,
2013-03-13 14:55:00,49.0,24.0,29.73,NE,45,3.0,5.0,39,0.00,,,0.00,TxWx,2013-03-13 18:55:00,
2013-03-13 15:00:00,50.0,25.0,29.73,East,90,6.0,9.0,39,0.00,,,0.00,TxWx,2013-03-13 19:00:00,
2013-03-13 15:06:00,50.0,24.0,29.73,NE,45,11.0,11.0,38,0.00,,,0.00,TxWx,2013-03-13 19:06:00,
2013-03-13 15:11:00,49.0,23.0,29.73,East,90,8.0,9.0,37,0.00,,,0.00,TxWx,2013-03-13 19:11:00,
2013-03-13 15:12:00,38.0,23.0,29.79,NE,45,6.0,8.0,58,0.00,,,0.00,TxWx,2013-03-13 19:12:00,
2013-03-13 15:13:00,38.0,23.0,29.80,ENE,67,13.0,13.0,58,0.00,,,0.00,TxWx,2013-03-13 19:13:00,
2013-03-13 15:16:00,49.0,23.0,29.73,East,90,10.0,12.0,37,0.00,,,0.00,TxWx,2013-03-13 19:16:00,
2013-03-13 15:21:00,49.0,23.0,29.73,East,90,5.0,5.0,37,0.00,,,0.00,TxWx,2013-03-13 19:21:00,
2013-03-13 15:26:00,50.0,24.0,29.73,East,90,5.0,6.0,38,0.00,,,0.00,TxWx,2013-03-13 19:26:00,
2013-03-13 15:32:00,50.0,24.0,29.73,NNE,22,4.0,8.0,38,0.00,,,0.00,TxWx,2013-03-13 19:32:00,
2013-03-13 15:37:00,50.0,24.0,29.73,NE,45,7.0,7.0,38,0.00,,,0.00,TxWx,2013-03-13 19:37:00,
2013-03-13 15:42:00,50.0,23.0,29.72,ENE,67,6.0,6.0,36,0.00,,,0.00,TxWx,2013-03-13 19:42:00,
2013-03-13 15:48:00,50.0,23.0,29.72,ENE,67,11.0,11.0,37,0.00,,,0.00,TxWx,2013-03-13 19:48:00,
2013-03-13 15:53:00,50.0,24.0,29.73,East,90,10.0,11.0,38,0.00,,,0.00,TxWx,2013-03-13 19:53:00,
2013-03-13 15:58:00,50.0,24.0,29.73,ENE,67,3.0,3.0,38,0.00,,,0.00,TxWx,2013-03-13 19:58:00,
2013-03-13 16:00:00,37.0,20.0,29.79,NNW,337,3.0,4.0,53,0.00,,,0.00,TxWx,2013-03-13 20:00:00,
2013-03-13 16:03:00,50.0,24.0,29.73,ENE,67,6.0,9.0,38,0.00,,,0.00,TxWx,2013-03-13 20:03:00,
2013-03-13 16:08:00,49.0,24.0,29.73,East,90,11.0,11.0,39,0.00,,,0.00,TxWx,2013-03-13 20:08:00,
2013-03-13 16:13:00,49.0,24.0,29.73,East,90,6.0,8.0,39,0.00,,,0.00,TxWx,2013-03-13 20:13:00,
2013-03-13 16:18:00,49.0,24.0,29.73,East,90,8.0,10.0,39,0.00,,,0.00,TxWx,2013-03-13 20:18:00,
2013-03-13 16:24:00,49.0,24.0,29.73,ENE,67,5.0,6.0,39,0.00,,,0.00,TxWx,2013-03-13 20:24:00,
2013-03-13 16:29:00,49.0,24.0,29.73,East,90,6.0,6.0,39,0.00,,,0.00,TxWx,2013-03-13 20:29:00,
2013-03-13 16:35:00,49.0,24.0,29.73,NE,45,3.0,4.0,40,0.00,,,0.00,TxWx,2013-03-13 20:35:00,
2013-03-13 16:40:00,49.0,24.0,29.73,ENE,67,5.0,6.0,39,0.00,,,0.00,TxWx,2013-03-13 20:40:00,
2013-03-13 16:45:00,49.0,24.0,29.73,East,90,6.0,6.0,40,0.00,,,0.00,TxWx,2013-03-13 20:45:00,
2013-03-13 16:50:00,49.0,24.0,29.73,ESE,112,3.0,5.0,39,0.00,,,0.00,TxWx,2013-03-13 20:50:00,
2013-03-13 16:55:00,49.0,24.0,29.73,ENE,67,7.0,8.0,39,0.00,,,0.00,TxWx,2013-03-13 20:55:00,
2013-03-13 17:00:00,49.0,24.0,29.73,East,90,4.0,6.0,39,0.00,,,0.00,TxWx,2013-03-13 21:00:00,
2013-03-13 17:05:00,49.0,24.0,29.73,NNE,22,5.0,6.0,39,0.00,,,0.00,TxWx,2013-03-13 21:05:00,
2013-03-13 17:10:00,49.0,24.0,29.73,NNE,22,5.0,6.0,39,0.00,,,0.00,TxWx,2013-03-13 21:10:00,
2013-03-13 17:16:00,49.0,24.0,29.73,NNE,22,4.0,5.0,39,0.00,,,0.00,TxWx,2013-03-13 21:16:00,
2013-03-13 17:21:00,49.0,24.0,29.73,NNW,337,4.0,5.0,39,0.00,,,0.00,TxWx,2013-03-13 21:21:00,
2013-03-13 17:27:00,49.0,24.0,29.73,North,0,5.0,5.0,39,0.00,,,0.00,TxWx,2013-03-13 21:27:00,
2013-03-13 17:32:00,49.0,24.0,29.73,NNE,22,5.0,5.0,39,0.00,,,0.00,TxWx,2013-03-13 21:32:00,
2013-03-13 17:37:00,49.0,24.0,29.73,NNW,337,6.0,6.0,39,0.00,,,0.00,TxWx,2013-03-13 21:37:00,
2013-03-13 17:42:00,49.0,24.0,29.73,North,0,3.0,5.0,39,0.00,,,0.00,TxWx,2013-03-13 21:42:00,
2013-03-13 17:47:00,50.0,25.0,29.73,NNE,22,5.0,5.0,39,0.00,,,0.00,TxWx,2013-03-13 21:47:00,
2013-03-13 17:53:00,49.0,24.0,29.73,North,0,4.0,5.0,39,0.00,,,0.00,TxWx,2013-03-13 21:53:00,
2013-03-13 17:58:00,49.0,24.0,29.73,NE,45,3.0,5.0,39,0.00,,,0.00,TxWx,2013-03-13 21:58:00,
2013-03-13 18:03:00,49.0,24.0,29.73,NE,45,4.0,4.0,39,0.00,,,0.00,TxWx,2013-03-13 22:03:00,
2013-03-13 18:08:00,49.0,24.0,29.73,NE,45,6.0,6.0,39,0.00,,,0.00,TxWx,2013-03-13 22:08:00,
2013-03-13 18:14:00,49.0,24.0,29.73,NW,315,1.0,2.0,39,0.00,,,0.00,TxWx,2013-03-13 22:14:00,
2013-03-13 18:19:00,49.0,23.0,29.73,East,90,2.0,3.0,38,0.00,,,0.00,TxWx,2013-03-13 22:19:00,
2013-03-13 18:24:00,49.0,23.0,29.74,East,90,3.0,4.0,38,0.00,,,0.00,TxWx,2013-03-13 22:24:00,
2013-03-13 18:30:00,49.0,24.0,29.74,East,90,5.0,5.0,39,0.00,,,0.00,TxWx,2013-03-13 22:30:00,
2013-03-13 18:35:00,49.0,24.0,29.74,East,90,6.0,6.0,39,0.00,,,0.00,TxWx,2013-03-13 22:35:00,
2013-03-13 18:40:00,48.0,23.0,29.74,NE,45,10.0,10.0,40,0.00,,,0.00,TxWx,2013-03-13 22:40:00,
2013-03-13 18:46:00,48.0,25.0,29.74,East,90,11.0,11.0,42,0.00,,,0.00,TxWx,2013-03-13 22:46:00,
2013-03-13 18:51:00,47.0,25.0,29.74,ENE,67,4.0,5.0,44,0.00,,,0.00,TxWx,2013-03-13 22:51:00,
2013-03-13 18:56:00,47.0,26.0,29.74,East,90,6.0,6.0,45,0.00,,,0.00,TxWx,2013-03-13 22:56:00,
2013-03-13 19:01:00,46.0,26.0,29.75,NNE,22,8.0,9.0,47,0.00,,,0.00,TxWx,2013-03-13 23:01:00,
2013-03-13 19:07:00,46.0,26.0,29.75,East,90,7.0,7.0,48,0.00,,,0.00,TxWx,2013-03-13 23:07:00,
2013-03-13 19:12:00,46.0,27.0,29.75,ENE,67,12.0,14.0,49,0.00,,,0.00,TxWx,2013-03-13 23:12:00,
2013-03-13 19:17:00,46.0,27.0,29.75,ENE,67,6.0,7.0,50,0.00,,,0.00,TxWx,2013-03-13 23:17:00,
2013-03-13 19:22:00,45.0,26.0,29.75,ESE,112,3.0,5.0,50,0.00,,,0.00,TxWx,2013-03-13 23:22:00,
2013-03-13 19:27:00,45.0,27.0,29.76,NE,45,7.0,7.0,51,0.00,,,0.00,TxWx,2013-03-13 23:27:00,
2013-03-13 19:32:00,45.0,26.0,29.76,ESE,112,3.0,3.0,50,0.00,,,0.00,TxWx,2013-03-13 23:32:00,
2013-03-13 19:38:00,45.0,26.0,29.76,NE,45,5.0,5.0,50,0.00,,,0.00,TxWx,2013-03-13 23:38:00,
2013-03-13 19:43:00,45.0,26.0,29.76,NNE,22,6.0,7.0,49,0.00,,,0.00,TxWx,2013-03-13 23:43:00,
2013-03-13 19:48:00,45.0,26.0,29.76,NNE,22,2.0,3.0,49,0.00,,,0.00,TxWx,2013-03-13 23:48:00,
2013-03-13 19:54:00,45.0,26.0,29.77,North,0,2.0,3.0,49,0.00,,,0.00,TxWx,2013-03-13 23:54:00,
2013-03-13 19:59:00,45.0,26.0,29.77,NNE,22,4.0,6.0,50,0.00,,,0.00,TxWx,2013-03-13 23:59:00,
2013-03-13 20:04:00,45.0,27.0,29.77,NE,45,2.0,4.0,51,0.00,,,0.00,TxWx,2013-03-14 00:04:00,
2013-03-13 20:09:00,45.0,27.0,29.77,NE,45,6.0,6.0,52,0.00,,,0.00,TxWx,2013-03-14 00:09:00,
2013-03-13 20:14:00,45.0,28.0,29.77,NE,45,4.0,4.0,53,0.00,,,0.00,TxWx,2013-03-14 00:14:00,
2013-03-13 20:19:00,44.0,27.0,29.77,East,90,8.0,8.0,53,0.00,,,0.00,TxWx,2013-03-14 00:19:00,
2013-03-13 20:24:00,44.0,28.0,29.78,East,90,7.0,10.0,55,0.00,,,0.00,TxWx,2013-03-14 00:24:00,
2013-03-13 20:30:00,44.0,29.0,29.78,East,90,8.0,8.0,57,0.00,,,0.00,TxWx,2013-03-14 00:30:00,
2013-03-13 20:35:00,43.0,28.0,29.78,ESE,112,6.0,8.0,58,0.00,,,0.00,TxWx,2013-03-14 00:35:00,
2013-03-13 20:40:00,43.0,29.0,29.78,SSE,157,3.0,3.0,60,0.00,,,0.00,TxWx,2013-03-14 00:40:00,
2013-03-13 20:45:00,43.0,29.0,29.78,East,90,6.0,8.0,61,0.00,,,0.00,TxWx,2013-03-14 00:45:00,
2013-03-13 20:50:00,43.0,30.0,29.78,SE,135,9.0,11.0,62,0.00,,,0.00,TxWx,2013-03-14 00:50:00,
2013-03-13 20:55:00,43.0,30.0,29.78,East,90,6.0,7.0,63,0.00,,,0.00,TxWx,2013-03-14 00:55:00,
2013-03-13 21:00:00,43.0,30.0,29.79,East,90,5.0,6.0,63,0.00,,,0.00,TxWx,2013-03-14 01:00:00,
2013-03-13 21:05:00,42.0,29.0,29.80,East,90,13.0,15.0,63,0.00,,,0.00,TxWx,2013-03-14 01:05:00,
2013-03-13 21:11:00,42.0,30.0,29.80,East,90,11.0,15.0,66,0.00,,,0.00,TxWx,2013-03-14 01:11:00,
2013-03-13 21:16:00,40.0,29.0,29.80,NNE,22,7.0,7.0,68,0.00,,,0.00,TxWx,2013-03-14 01:16:00,
2013-03-13 21:21:00,40.0,30.0,29.80,East,90,9.0,9.0,70,0.00,,,0.00,TxWx,2013-03-14 01:21:00,
2013-03-13 21:27:00,40.0,30.0,29.80,ENE,67,9.0,12.0,70,0.00,,,0.00,TxWx,2013-03-14 01:27:00,
2013-03-13 21:32:00,40.0,29.0,29.80,East,90,11.0,12.0,68,0.00,,,0.00,TxWx,2013-03-14 01:32:00,
2013-03-13 21:37:00,40.0,28.0,29.80,East,90,5.0,9.0,66,0.00,,,0.00,TxWx,2013-03-14 01:37:00,
2013-03-13 21:42:00,40.0,28.0,29.80,East,90,6.0,7.0,65,0.00,,,0.00,TxWx,2013-03-14 01:42:00,
2013-03-13 21:47:00,40.0,28.0,29.80,ENE,67,8.0,8.0,65,0.00,,,0.00,TxWx,2013-03-14 01:47:00,
2013-03-13 21:53:00,40.0,28.0,29.80,ESE,112,13.0,13.0,66,0.00,,,0.00,TxWx,2013-03-14 01:53:00,
2013-03-13 21:58:00,40.0,28.0,29.80,ENE,67,8.0,9.0,65,0.00,,,0.00,TxWx,2013-03-14 01:58:00,
2013-03-13 22:03:00,40.0,28.0,29.80,ENE,67,11.0,13.0,65,0.00,,,0.00,TxWx,2013-03-14 02:03:00,
2013-03-13 22:08:00,40.0,28.0,29.80,East,90,5.0,6.0,64,0.00,,,0.00,TxWx,2013-03-14 02:08:00,
2013-03-13 22:13:00,41.0,28.0,29.80,East,90,8.0,11.0,63,0.00,,,0.00,TxWx,2013-03-14 02:13:00,
2013-03-13 22:19:00,41.0,28.0,29.80,East,90,8.0,13.0,62,0.00,,,0.00,TxWx,2013-03-14 02:19:00,
2013-03-13 22:24:00,41.0,28.0,29.80,East,90,7.0,7.0,61,0.00,,,0.00,TxWx,2013-03-14 02:24:00,
2013-03-13 22:29:00,41.0,27.0,29.80,ENE,67,6.0,8.0,61,0.00,,,0.00,TxWx,2013-03-14 02:29:00,
2013-03-13 22:34:00,41.0,27.0,29.80,East,90,7.0,8.0,61,0.00,,,0.00,TxWx,2013-03-14 02:34:00,
2013-03-13 22:39:00,41.0,27.0,29.80,ENE,67,7.0,8.0,60,0.00,,,0.00,TxWx,2013-03-14 02:39:00,
2013-03-13 22:45:00,41.0,27.0,29.80,East,90,6.0,9.0,60,0.00,,,0.00,TxWx,2013-03-14 02:45:00,
2013-03-13 22:50:00,40.0,26.0,29.80,SE,135,4.0,6.0,60,0.00,,,0.00,TxWx,2013-03-14 02:50:00,
2013-03-13 22:55:00,40.0,26.0,29.80,ESE,112,8.0,10.0,60,0.00,,,0.00,TxWx,2013-03-14 02:55:00,
2013-03-13 23:00:00,40.0,26.0,29.80,ESE,112,6.0,8.0,60,0.00,,,0.00,TxWx,2013-03-14 03:00:00,
2013-03-13 23:05:00,40.0,26.0,29.80,East,90,5.0,5.0,60,0.00,,,0.00,TxWx,2013-03-14 03:05:00,
2013-03-13 23:11:00,40.0,26.0,29.80,ENE,67,8.0,9.0,60,0.00,,,0.00,TxWx,2013-03-14 03:11:00,
2013-03-13 23:16:00,40.0,26.0,29.79,East,90,4.0,6.0,60,0.00,,,0.00,TxWx,2013-03-14 03:16:00,
2013-03-13 23:21:00,40.0,26.0,29.79,East,90,6.0,8.0,59,0.00,,,0.00,TxWx,2013-03-14 03:21:00,
2013-03-13 23:26:00,40.0,26.0,29.79,East,90,9.0,9.0,59,0.00,,,0.00,TxWx,2013-03-14 03:26:00,
2013-03-13 23:32:00,40.0,26.0,29.79,East,90,8.0,8.0,59,0.00,,,0.00,TxWx,2013-03-14 03:32:00,
2013-03-13 23:37:00,40.0,25.0,29.79,ENE,67,8.0,8.0,58,0.00,,,0.00,TxWx,2013-03-14 03:37:00,
2013-03-13 23:42:00,40.0,26.0,29.79,East,90,6.0,8.0,59,0.00,,,0.00,TxWx,2013-03-14 03:42:00,
2013-03-13 23:47:00,40.0,26.0,29.79,ENE,67,5.0,6.0,59,0.00,,,0.00,TxWx,2013-03-14 03:47:00,
2013-03-13 23:53:00,40.0,26.0,29.79,ENE,67,5.0,5.0,59,0.00,,,0.00,TxWx,2013-03-14 03:53:00,
2013-03-13 23:58:00,40.0,26.0,29.80,East,90,4.0,4.0,59,0.00,,,0.00,TxWx,2013-03-14 03:58:00,